sensor_id;sensor_type;location;lat;lon;timestamp;pressure;altitude;pressure_sealevel;temperature;humidity
3082;BME280;1551;51.046;7.010;2024-02-23T00:02:46;98298.44;;;8.46;72.90
3082;BME280;1551;51.046;7.010;2024-02-23T00:05:35;98301.50;;;8.32;72.79
3082;BME280;1551;51.046;7.010;2024-02-23T00:08:24;98321.97;;;8.31;72.24
3082;BME280;1551;51.046;7.010;2024-02-23T00:11:13;98330.63;;;8.27;72.96
3082;BME280;1551;51.046;7.010;2024-02-23T00:14:02;98334.81;;;8.28;72.48
3082;BME280;1551;51.046;7.010;2024-02-23T00:16:51;98358.56;;;8.28;72.75
3082;BME280;1551;51.046;7.010;2024-02-23T00:19:40;98372.34;;;8.23;73.26
3082;BME280;1551;51.046;7.010;2024-02-23T00:22:29;98372.56;;;8.17;73.02
3082;BME280;1551;51.046;7.010;2024-02-23T00:25:18;98376.00;;;8.16;73.00
3082;BME280;1551;51.046;7.010;2024-02-23T00:28:08;98374.25;;;8.18;73.36
3082;BME280;1551;51.046;7.010;2024-02-23T00:30:57;98376.63;;;8.22;74.15
3082;BME280;1551;51.046;7.010;2024-02-23T00:33:46;98378.34;;;8.22;74.03
3082;BME280;1551;51.046;7.010;2024-02-23T00:36:35;98390.41;;;8.17;73.91
3082;BME280;1551;51.046;7.010;2024-02-23T00:39:24;98405.19;;;8.07;74.78
3082;BME280;1551;51.046;7.010;2024-02-23T00:42:13;98392.06;;;7.95;74.79
3082;BME280;1551;51.046;7.010;2024-02-23T00:45:02;98408.69;;;7.82;75.58
3082;BME280;1551;51.046;7.010;2024-02-23T00:47:51;98395.41;;;7.74;75.29
3082;BME280;1551;51.046;7.010;2024-02-23T00:50:40;98413.59;;;7.63;75.90
3082;BME280;1551;51.046;7.010;2024-02-23T00:53:32;98414.34;;;7.67;75.99
3082;BME280;1551;51.046;7.010;2024-02-23T00:56:21;98415.38;;;7.61;76.40
3082;BME280;1551;51.046;7.010;2024-02-23T00:59:10;98417.28;;;7.54;76.54
3082;BME280;1551;51.046;7.010;2024-02-23T01:01:59;98445.28;;;7.54;77.06
3082;BME280;1551;51.046;7.010;2024-02-23T01:04:48;98441.00;;;7.55;77.44
3082;BME280;1551;51.046;7.010;2024-02-23T01:07:37;98445.38;;;7.51;76.95
3082;BME280;1551;51.046;7.010;2024-02-23T01:10:26;98444.78;;;7.43;77.71
3082;BME280;1551;51.046;7.010;2024-02-23T01:13:16;98453.44;;;7.39;78.01
3082;BME280;1551;51.046;7.010;2024-02-23T01:16:05;98459.41;;;7.38;78.05
3082;BME280;1551;51.046;7.010;2024-02-23T01:18:55;98474.63;;;7.40;78.25
3082;BME280;1551;51.046;7.010;2024-02-23T01:21:44;98483.13;;;7.39;77.91
3082;BME280;1551;51.046;7.010;2024-02-23T01:24:33;98488.19;;;7.40;78.08
3082;BME280;1551;51.046;7.010;2024-02-23T01:27:22;98491.53;;;7.41;78.03
3082;BME280;1551;51.046;7.010;2024-02-23T01:30:11;98482.34;;;7.37;78.07
3082;BME280;1551;51.046;7.010;2024-02-23T01:33:00;98507.63;;;7.41;77.39
3082;BME280;1551;51.046;7.010;2024-02-23T01:35:49;98493.44;;;7.34;77.20
3082;BME280;1551;51.046;7.010;2024-02-23T01:38:39;98498.66;;;7.31;77.49
3082;BME280;1551;51.046;7.010;2024-02-23T01:41:31;98504.31;;;7.39;77.31
3082;BME280;1551;51.046;7.010;2024-02-23T01:44:21;98504.47;;;7.35;76.89
3082;BME280;1551;51.046;7.010;2024-02-23T01:47:11;98503.69;;;7.33;77.05
3082;BME280;1551;51.046;7.010;2024-02-23T01:50:00;98505.47;;;7.29;77.21
3082;BME280;1551;51.046;7.010;2024-02-23T01:52:49;98522.72;;;7.21;77.14
3082;BME280;1551;51.046;7.010;2024-02-23T01:55:41;98528.66;;;7.20;77.17
3082;BME280;1551;51.046;7.010;2024-02-23T01:58:33;98529.66;;;7.16;77.14
3082;BME280;1551;51.046;7.010;2024-02-23T02:01:24;98531.50;;;7.11;77.55
3082;BME280;1551;51.046;7.010;2024-02-23T02:04:14;98537.66;;;7.04;77.61
3082;BME280;1551;51.046;7.010;2024-02-23T02:07:02;98530.09;;;7.01;77.74
3082;BME280;1551;51.046;7.010;2024-02-23T02:09:51;98524.22;;;7.01;78.25
3082;BME280;1551;51.046;7.010;2024-02-23T02:12:40;98530.25;;;6.97;78.36
3082;BME280;1551;51.046;7.010;2024-02-23T02:15:29;98534.69;;;6.90;78.62
3082;BME280;1551;51.046;7.010;2024-02-23T02:18:18;98529.75;;;6.85;78.43
3082;BME280;1551;51.046;7.010;2024-02-23T02:21:07;98528.91;;;6.85;78.37
3082;BME280;1551;51.046;7.010;2024-02-23T02:23:56;98529.69;;;6.87;78.76
3082;BME280;1551;51.046;7.010;2024-02-23T02:26:45;98539.13;;;6.83;78.53
3082;BME280;1551;51.046;7.010;2024-02-23T02:29:35;98545.06;;;6.82;78.27
3082;BME280;1551;51.046;7.010;2024-02-23T02:32:24;98543.56;;;6.77;78.97
3082;BME280;1551;51.046;7.010;2024-02-23T02:35:13;98543.50;;;6.78;78.48
3082;BME280;1551;51.046;7.010;2024-02-23T02:38:02;98544.44;;;6.76;78.82
3082;BME280;1551;51.046;7.010;2024-02-23T02:40:51;98545.28;;;6.76;78.96
3082;BME280;1551;51.046;7.010;2024-02-23T02:43:40;98554.53;;;6.79;78.50
3082;BME280;1551;51.046;7.010;2024-02-23T02:46:30;98566.38;;;6.78;78.47
3082;BME280;1551;51.046;7.010;2024-02-23T02:49:18;98556.16;;;6.80;78.66
3082;BME280;1551;51.046;7.010;2024-02-23T02:52:08;98567.16;;;6.80;78.58
3082;BME280;1551;51.046;7.010;2024-02-23T02:55:00;98558.75;;;6.78;78.20
3082;BME280;1551;51.046;7.010;2024-02-23T02:57:49;98560.44;;;6.79;78.13
3082;BME280;1551;51.046;7.010;2024-02-23T03:00:38;98569.00;;;6.75;77.85
3082;BME280;1551;51.046;7.010;2024-02-23T03:03:27;98575.78;;;6.76;77.98
3082;BME280;1551;51.046;7.010;2024-02-23T03:06:16;98581.03;;;6.70;78.04
3082;BME280;1551;51.046;7.010;2024-02-23T03:09:05;98576.63;;;6.77;77.89
3082;BME280;1551;51.046;7.010;2024-02-23T03:11:54;98575.78;;;6.76;78.22
3082;BME280;1551;51.046;7.010;2024-02-23T03:14:43;98575.00;;;6.73;77.95
3082;BME280;1551;51.046;7.010;2024-02-23T03:17:32;98587.72;;;6.73;77.74
3082;BME280;1551;51.046;7.010;2024-02-23T03:20:21;98579.22;;;6.74;77.60
3082;BME280;1551;51.046;7.010;2024-02-23T03:23:11;98578.44;;;6.72;77.41
3082;BME280;1551;51.046;7.010;2024-02-23T03:26:00;98584.38;;;6.71;77.47
3082;BME280;1551;51.046;7.010;2024-02-23T03:28:49;98589.66;;;6.65;77.00
3082;BME280;1551;51.046;7.010;2024-02-23T03:31:38;98581.28;;;6.61;76.69
3082;BME280;1551;51.046;7.010;2024-02-23T03:34:27;98580.34;;;6.65;76.70
3082;BME280;1551;51.046;7.010;2024-02-23T03:37:16;98581.19;;;6.64;76.78
3082;BME280;1551;51.046;7.010;2024-02-23T03:40:05;98585.44;;;6.64;76.24
3082;BME280;1551;51.046;7.010;2024-02-23T03:42:55;98584.56;;;6.65;76.30
3082;BME280;1551;51.046;7.010;2024-02-23T03:45:44;98582.13;;;6.62;75.97
3082;BME280;1551;51.046;7.010;2024-02-23T03:48:32;98593.84;;;6.66;76.10
3082;BME280;1551;51.046;7.010;2024-02-23T03:51:23;98591.38;;;6.64;75.71
3082;BME280;1551;51.046;7.010;2024-02-23T03:54:12;98595.00;;;6.56;76.09
3082;BME280;1551;51.046;7.010;2024-02-23T03:57:01;98603.53;;;6.53;75.67
3082;BME280;1551;51.046;7.010;2024-02-23T03:59:57;98603.47;;;6.55;75.90
3082;BME280;1551;51.046;7.010;2024-02-23T04:02:46;98613.31;;;6.67;75.45
3082;BME280;1551;51.046;7.010;2024-02-23T04:05:35;98620.88;;;6.70;75.50
3082;BME280;1551;51.046;7.010;2024-02-23T04:08:24;98614.75;;;6.77;75.38
3082;BME280;1551;51.046;7.010;2024-02-23T04:11:13;98609.47;;;6.83;74.82
3082;BME280;1551;51.046;7.010;2024-02-23T04:14:01;98608.56;;;6.85;74.96
3082;BME280;1551;51.046;7.010;2024-02-23T04:16:50;98606.84;;;6.86;74.40
3082;BME280;1551;51.046;7.010;2024-02-23T04:19:43;98619.34;;;6.93;74.68
3082;BME280;1551;51.046;7.010;2024-02-23T04:22:32;98613.16;;;7.02;75.03
3082;BME280;1551;51.046;7.010;2024-02-23T04:25:21;98623.31;;;7.02;74.32
3082;BME280;1551;51.046;7.010;2024-02-23T04:28:10;98625.69;;;7.08;74.79
3082;BME280;1551;51.046;7.010;2024-02-23T04:30:59;98617.25;;;7.08;74.18
3082;BME280;1551;51.046;7.010;2024-02-23T04:33:48;98625.66;;;7.10;74.11
3082;BME280;1551;51.046;7.010;2024-02-23T04:36:37;98630.41;;;7.20;74.13
3082;BME280;1551;51.046;7.010;2024-02-23T04:39:26;98626.72;;;7.30;74.07
3082;BME280;1551;51.046;7.010;2024-02-23T04:42:15;98635.84;;;7.37;74.14
3082;BME280;1551;51.046;7.010;2024-02-23T04:45:05;98634.84;;;7.41;73.72
3082;BME280;1551;51.046;7.010;2024-02-23T04:47:54;98639.09;;;7.41;73.90
3082;BME280;1551;51.046;7.010;2024-02-23T04:50:43;98644.19;;;7.41;73.73
3082;BME280;1551;51.046;7.010;2024-02-23T04:53:36;98633.22;;;7.39;73.83
3082;BME280;1551;51.046;7.010;2024-02-23T04:56:25;98635.84;;;7.37;73.67
3082;BME280;1551;51.046;7.010;2024-02-23T04:59:14;98640.69;;;7.45;74.04
3082;BME280;1551;51.046;7.010;2024-02-23T05:02:03;98636.03;;;7.31;74.06
3082;BME280;1551;51.046;7.010;2024-02-23T05:04:53;98638.66;;;7.28;74.14
3082;BME280;1551;51.046;7.010;2024-02-23T05:07:42;98640.28;;;7.31;74.05
3082;BME280;1551;51.046;7.010;2024-02-23T05:10:31;98640.09;;;7.37;73.62
3082;BME280;1551;51.046;7.010;2024-02-23T05:13:20;98647.81;;;7.34;74.13
3082;BME280;1551;51.046;7.010;2024-02-23T05:16:09;98645.16;;;7.38;73.74
3082;BME280;1551;51.046;7.010;2024-02-23T05:18:57;98638.53;;;7.33;73.68
3082;BME280;1551;51.046;7.010;2024-02-23T05:21:46;98644.34;;;7.36;73.78
3082;BME280;1551;51.046;7.010;2024-02-23T05:24:35;98635.56;;;7.19;73.95
3082;BME280;1551;51.046;7.010;2024-02-23T05:27:24;98627.13;;;7.17;74.39
3082;BME280;1551;51.046;7.010;2024-02-23T05:30:14;98633.31;;;7.08;74.97
3082;BME280;1551;51.046;7.010;2024-02-23T05:33:03;98626.72;;;7.01;74.47
3082;BME280;1551;51.046;7.010;2024-02-23T05:35:52;98628.41;;;7.02;74.90
3082;BME280;1551;51.046;7.010;2024-02-23T05:38:41;98623.38;;;7.01;74.83
3082;BME280;1551;51.046;7.010;2024-02-23T05:41:35;98636.16;;;6.98;75.15
3082;BME280;1551;51.046;7.010;2024-02-23T05:44:25;98626.22;;;6.90;75.25
3082;BME280;1551;51.046;7.010;2024-02-23T05:47:14;98634.88;;;6.83;75.28
3082;BME280;1551;51.046;7.010;2024-02-23T05:50:04;98609.03;;;6.69;75.31
3082;BME280;1551;51.046;7.010;2024-02-23T05:52:53;98620.09;;;6.66;75.45
3082;BME280;1551;51.046;7.010;2024-02-23T05:55:42;98627.06;;;6.60;75.66
3082;BME280;1551;51.046;7.010;2024-02-23T05:58:31;98624.59;;;6.57;75.48
3082;BME280;1551;51.046;7.010;2024-02-23T06:01:20;98640.69;;;6.57;75.43
3082;BME280;1551;51.046;7.010;2024-02-23T06:04:09;98632.22;;;6.57;76.08
3082;BME280;1551;51.046;7.010;2024-02-23T06:06:58;98631.38;;;6.58;76.20
3082;BME280;1551;51.046;7.010;2024-02-23T06:09:47;98632.22;;;6.57;75.95
3082;BME280;1551;51.046;7.010;2024-02-23T06:12:36;98628.94;;;6.53;76.20
3082;BME280;1551;51.046;7.010;2024-02-23T06:15:27;98626.28;;;6.58;76.25
3082;BME280;1551;51.046;7.010;2024-02-23T06:18:16;98630.97;;;6.71;76.67
3082;BME280;1551;51.046;7.010;2024-02-23T06:21:15;98630.00;;;6.77;75.96
3082;BME280;1551;51.046;7.010;2024-02-23T06:24:04;98626.41;;;6.84;75.61
3082;BME280;1551;51.046;7.010;2024-02-23T06:26:53;98619.63;;;6.83;75.85
3082;BME280;1551;51.046;7.010;2024-02-23T06:29:42;98618.31;;;6.70;76.22
3082;BME280;1551;51.046;7.010;2024-02-23T06:32:31;98612.53;;;6.65;76.46
3082;BME280;1551;51.046;7.010;2024-02-23T06:35:20;98608.50;;;6.58;76.80
3082;BME280;1551;51.046;7.010;2024-02-23T06:38:10;98621.94;;;6.61;76.70
3082;BME280;1551;51.046;7.010;2024-02-23T06:40:59;98630.44;;;6.60;76.73
3082;BME280;1551;51.046;7.010;2024-02-23T06:43:48;98634.63;;;6.61;77.21
3082;BME280;1551;51.046;7.010;2024-02-23T06:46:37;98630.41;;;6.62;76.50
3082;BME280;1551;51.046;7.010;2024-02-23T06:49:26;98629.53;;;6.63;77.17
3082;BME280;1551;51.046;7.010;2024-02-23T06:52:15;98617.75;;;6.60;77.06
3082;BME280;1551;51.046;7.010;2024-02-23T06:55:04;98631.19;;;6.64;76.87
3082;BME280;1551;51.046;7.010;2024-02-23T06:57:54;98624.66;;;6.55;76.88
3082;BME280;1551;51.046;7.010;2024-02-23T07:00:43;98616.31;;;6.50;77.24
3082;BME280;1551;51.046;7.010;2024-02-23T07:03:33;98619.53;;;6.57;77.45
3082;BME280;1551;51.046;7.010;2024-02-23T07:06:23;98622.75;;;6.63;77.14
3082;BME280;1551;51.046;7.010;2024-02-23T07:09:12;98634.41;;;6.70;77.29
3082;BME280;1551;51.046;7.010;2024-02-23T07:12:02;98619.81;;;6.77;76.71
3082;BME280;1551;51.046;7.010;2024-02-23T07:14:51;98626.03;;;6.67;76.57
3082;BME280;1551;51.046;7.010;2024-02-23T07:17:40;98620.88;;;6.70;76.17
3082;BME280;1551;51.046;7.010;2024-02-23T07:20:29;98622.63;;;6.68;76.41
3082;BME280;1551;51.046;7.010;2024-02-23T07:23:18;98626.06;;;6.65;76.69
3082;BME280;1551;51.046;7.010;2024-02-23T07:26:08;98629.47;;;6.64;76.52
3082;BME280;1551;51.046;7.010;2024-02-23T07:28:57;98631.31;;;6.59;76.65
3082;BME280;1551;51.046;7.010;2024-02-23T07:31:46;98631.25;;;6.62;76.62
3082;BME280;1551;51.046;7.010;2024-02-23T07:34:35;98636.25;;;6.65;76.39
3082;BME280;1551;51.046;7.010;2024-02-23T07:37:26;98627.91;;;6.60;75.95
3082;BME280;1551;51.046;7.010;2024-02-23T07:40:16;98619.44;;;6.60;76.60
3082;BME280;1551;51.046;7.010;2024-02-23T07:43:05;98609.59;;;6.48;76.44
3082;BME280;1551;51.046;7.010;2024-02-23T07:45:54;98612.03;;;6.52;77.31
3082;BME280;1551;51.046;7.010;2024-02-23T07:48:43;98615.91;;;6.65;77.43
3082;BME280;1551;51.046;7.010;2024-02-23T07:51:32;98623.75;;;6.87;77.52
3082;BME280;1551;51.046;7.010;2024-02-23T07:54:21;98613.91;;;7.06;77.42
3082;BME280;1551;51.046;7.010;2024-02-23T07:57:10;98622.25;;;7.38;77.41
3082;BME280;1551;51.046;7.010;2024-02-23T07:59:59;98615.50;;;7.63;76.36
3082;BME280;1551;51.046;7.010;2024-02-23T08:02:48;98621.22;;;7.96;75.54
3082;BME280;1551;51.046;7.010;2024-02-23T08:05:38;98617.38;;;8.36;74.64
3082;BME280;1551;51.046;7.010;2024-02-23T08:08:27;98626.16;;;8.52;73.43
3082;BME280;1551;51.046;7.010;2024-02-23T08:11:16;98634.47;;;8.81;71.76
3082;BME280;1551;51.046;7.010;2024-02-23T08:14:05;98637.81;;;8.82;71.14
3082;BME280;1551;51.046;7.010;2024-02-23T08:16:55;98646.81;;;8.92;70.39
3082;BME280;1551;51.046;7.010;2024-02-23T08:19:44;98641.34;;;9.03;70.35
3082;BME280;1551;51.046;7.010;2024-02-23T08:22:33;98638.94;;;9.43;69.18
3082;BME280;1551;51.046;7.010;2024-02-23T08:25:21;98649.25;;;9.18;68.00
3082;BME280;1551;51.046;7.010;2024-02-23T08:28:10;98647.22;;;9.05;68.44
3082;BME280;1551;51.046;7.010;2024-02-23T08:30:59;98624.97;;;8.85;67.78
3082;BME280;1551;51.046;7.010;2024-02-23T08:33:48;98650.06;;;8.72;67.88
3082;BME280;1551;51.046;7.010;2024-02-23T08:36:37;98645.69;;;8.53;69.07
3082;BME280;1551;51.046;7.010;2024-02-23T08:39:26;98640.00;;;8.69;68.65
3082;BME280;1551;51.046;7.010;2024-02-23T08:42:15;98640.31;;;8.60;67.80
3082;BME280;1551;51.046;7.010;2024-02-23T08:45:04;98643.22;;;8.74;68.51
3082;BME280;1551;51.046;7.010;2024-02-23T08:47:53;98644.16;;;8.95;68.21
3082;BME280;1551;51.046;7.010;2024-02-23T08:50:42;98653.41;;;9.21;67.41
3082;BME280;1551;51.046;7.010;2024-02-23T08:53:31;98656.88;;;9.41;66.51
3082;BME280;1551;51.046;7.010;2024-02-23T08:56:20;98666.47;;;9.35;65.94
3082;BME280;1551;51.046;7.010;2024-02-23T08:59:09;98665.69;;;9.10;65.63
3082;BME280;1551;51.046;7.010;2024-02-23T09:01:59;98659.28;;;8.99;66.00
3082;BME280;1551;51.046;7.010;2024-02-23T09:04:48;98653.41;;;8.97;66.54
3082;BME280;1551;51.046;7.010;2024-02-23T09:07:37;98675.13;;;8.84;66.51
3082;BME280;1551;51.046;7.010;2024-02-23T09:10:25;98669.94;;;8.87;66.55
3082;BME280;1551;51.046;7.010;2024-02-23T09:13:14;98664.75;;;8.89;66.35
3082;BME280;1551;51.046;7.010;2024-02-23T09:16:04;98674.53;;;9.01;65.54
3082;BME280;1551;51.046;7.010;2024-02-23T09:18:53;98672.31;;;9.15;65.36
3082;BME280;1551;51.046;7.010;2024-02-23T09:21:42;98670.59;;;9.16;66.37
3082;BME280;1551;51.046;7.010;2024-02-23T09:24:31;98670.50;;;9.19;65.54
3082;BME280;1551;51.046;7.010;2024-02-23T09:27:22;98666.94;;;9.23;65.40
3082;BME280;1551;51.046;7.010;2024-02-23T09:30:12;98675.53;;;9.20;65.61
3082;BME280;1551;51.046;7.010;2024-02-23T09:33:02;98692.81;;;9.12;66.20
3082;BME280;1551;51.046;7.010;2024-02-23T09:35:51;98678.19;;;9.17;65.44
3082;BME280;1551;51.046;7.010;2024-02-23T09:38:39;98671.47;;;9.15;65.57
3082;BME280;1551;51.046;7.010;2024-02-23T09:41:28;98673.22;;;9.36;65.56
3082;BME280;1551;51.046;7.010;2024-02-23T09:44:18;98687.38;;;9.66;64.67
3082;BME280;1551;51.046;7.010;2024-02-23T09:47:07;98677.84;;;9.71;64.12
3082;BME280;1551;51.046;7.010;2024-02-23T09:50:00;98681.94;;;10.59;62.61
3082;BME280;1551;51.046;7.010;2024-02-23T09:52:53;98669.03;;;11.00;61.56
3082;BME280;1551;51.046;7.010;2024-02-23T09:55:43;98664.47;;;11.07;61.15
3082;BME280;1551;51.046;7.010;2024-02-23T09:58:34;98673.38;;;10.98;60.13
3082;BME280;1551;51.046;7.010;2024-02-23T10:01:28;98664.97;;;11.15;58.37
3082;BME280;1551;51.046;7.010;2024-02-23T10:04:20;98671.31;;;10.68;59.74
3082;BME280;1551;51.046;7.010;2024-02-23T10:07:09;98671.47;;;10.83;59.30
3082;BME280;1551;51.046;7.010;2024-02-23T10:09:58;98664.88;;;10.39;59.86
3082;BME280;1551;51.046;7.010;2024-02-23T10:12:47;98677.06;;;10.12;60.00
3082;BME280;1551;51.046;7.010;2024-02-23T10:15:37;98673.19;;;10.02;60.61
3082;BME280;1551;51.046;7.010;2024-02-23T10:18:26;98687.22;;;9.92;61.58
3082;BME280;1551;51.046;7.010;2024-02-23T10:21:16;98683.59;;;9.98;60.83
3082;BME280;1551;51.046;7.010;2024-02-23T10:24:05;98692.88;;;10.00;60.98
3082;BME280;1551;51.046;7.010;2024-02-23T10:26:55;98690.59;;;9.93;61.03
3082;BME280;1551;51.046;7.010;2024-02-23T10:29:43;98679.56;;;10.14;60.32
3082;BME280;1551;51.046;7.010;2024-02-23T10:32:34;98696.91;;;10.48;58.66
3082;BME280;1551;51.046;7.010;2024-02-23T10:35:24;98686.16;;;10.40;59.51
3082;BME280;1551;51.046;7.010;2024-02-23T10:38:16;98693.78;;;10.61;59.41
3082;BME280;1551;51.046;7.010;2024-02-23T10:41:09;98693.34;;;10.31;60.02
3082;BME280;1551;51.046;7.010;2024-02-23T10:44:03;98703.75;;;10.05;60.42
3082;BME280;1551;51.046;7.010;2024-02-23T10:46:54;98689.28;;;10.04;60.22
3082;BME280;1551;51.046;7.010;2024-02-23T10:49:44;98700.81;;;10.36;61.03
3082;BME280;1551;51.046;7.010;2024-02-23T10:52:35;98697.59;;;10.31;60.22
3082;BME280;1551;51.046;7.010;2024-02-23T10:55:26;98707.59;;;10.15;60.88
3082;BME280;1551;51.046;7.010;2024-02-23T10:58:15;98716.50;;;10.05;61.69
3082;BME280;1551;51.046;7.010;2024-02-23T11:01:07;98700.72;;;10.17;61.90
3082;BME280;1551;51.046;7.010;2024-02-23T11:03:57;98714.47;;;10.15;61.53
3082;BME280;1551;51.046;7.010;2024-02-23T11:06:51;98692.91;;;9.99;61.90
3082;BME280;1551;51.046;7.010;2024-02-23T11:09:40;98707.06;;;10.07;61.95
3082;BME280;1551;51.046;7.010;2024-02-23T11:12:29;98726.00;;;10.02;61.85
3082;BME280;1551;51.046;7.010;2024-02-23T11:15:29;98696.78;;;9.87;61.93
3082;BME280;1551;51.046;7.010;2024-02-23T11:18:23;98690.91;;;9.85;61.95
3082;BME280;1551;51.046;7.010;2024-02-23T11:21:12;98686.25;;;9.95;62.44
3082;BME280;1551;51.046;7.010;2024-02-23T11:24:03;98699.22;;;9.90;61.48
3082;BME280;1551;51.046;7.010;2024-02-23T11:26:56;98688.53;;;9.81;62.16
3082;BME280;1551;51.046;7.010;2024-02-23T11:29:46;98693.34;;;9.88;62.75
3082;BME280;1551;51.046;7.010;2024-02-23T11:32:41;98705.25;;;9.89;62.85
3082;BME280;1551;51.046;7.010;2024-02-23T11:35:31;98722.09;;;9.93;62.24
3082;BME280;1551;51.046;7.010;2024-02-23T11:38:21;98717.69;;;9.97;62.30
3082;BME280;1551;51.046;7.010;2024-02-23T11:41:10;98697.25;;;10.18;62.35
3082;BME280;1551;51.046;7.010;2024-02-23T11:43:59;98685.84;;;10.47;62.42
3082;BME280;1551;51.046;7.010;2024-02-23T11:46:48;98690.22;;;11.79;59.43
3082;BME280;1551;51.046;7.010;2024-02-23T11:49:37;98677.25;;;11.63;58.92
3082;BME280;1551;51.046;7.010;2024-02-23T11:52:26;98682.81;;;11.35;58.63
3082;BME280;1551;51.046;7.010;2024-02-23T11:55:19;98677.75;;;11.15;58.93
3082;BME280;1551;51.046;7.010;2024-02-23T11:58:11;98665.47;;;10.84;60.12
3082;BME280;1551;51.046;7.010;2024-02-23T12:01:01;98652.91;;;10.60;60.32
3082;BME280;1551;51.046;7.010;2024-02-23T12:03:51;98670.31;;;10.52;59.86
3082;BME280;1551;51.046;7.010;2024-02-23T12:06:41;98666.91;;;10.51;59.87
3082;BME280;1551;51.046;7.010;2024-02-23T12:09:31;98676.06;;;10.36;59.42
3082;BME280;1551;51.046;7.010;2024-02-23T12:12:20;98673.19;;;10.24;58.78
3082;BME280;1551;51.046;7.010;2024-02-23T12:15:10;98684.28;;;10.23;59.04
3082;BME280;1551;51.046;7.010;2024-02-23T12:17:59;98666.84;;;10.12;59.30
3082;BME280;1551;51.046;7.010;2024-02-23T12:20:51;98669.91;;;10.20;59.38
3082;BME280;1551;51.046;7.010;2024-02-23T12:23:44;98670.31;;;10.31;60.29
3082;BME280;1551;51.046;7.010;2024-02-23T12:26:33;98674.91;;;10.23;59.62
3082;BME280;1551;51.046;7.010;2024-02-23T12:29:23;98700.59;;;10.20;59.97
3082;BME280;1551;51.046;7.010;2024-02-23T12:32:12;98684.75;;;10.11;59.70
3082;BME280;1551;51.046;7.010;2024-02-23T12:35:01;98675.22;;;10.16;59.80
3082;BME280;1551;51.046;7.010;2024-02-23T12:37:50;98683.66;;;10.18;60.01
3082;BME280;1551;51.046;7.010;2024-02-23T12:40:40;98681.38;;;10.10;60.70
3082;BME280;1551;51.046;7.010;2024-02-23T12:43:29;98673.59;;;10.13;60.17
3082;BME280;1551;51.046;7.010;2024-02-23T12:46:18;98678.41;;;10.21;60.82
3082;BME280;1551;51.046;7.010;2024-02-23T12:49:07;98680.56;;;10.31;60.49
3082;BME280;1551;51.046;7.010;2024-02-23T12:51:56;98675.81;;;10.43;60.95
3082;BME280;1551;51.046;7.010;2024-02-23T12:54:45;98673.75;;;10.71;60.20
3082;BME280;1551;51.046;7.010;2024-02-23T12:57:35;98677.38;;;10.85;59.76
3082;BME280;1551;51.046;7.010;2024-02-23T13:00:23;98667.09;;;11.05;59.82
3082;BME280;1551;51.046;7.010;2024-02-23T13:03:12;98677.63;;;11.18;59.15
3082;BME280;1551;51.046;7.010;2024-02-23T13:06:01;98663.78;;;11.03;59.49
3082;BME280;1551;51.046;7.010;2024-02-23T13:08:51;98674.06;;;11.21;59.45
3082;BME280;1551;51.046;7.010;2024-02-23T13:11:41;98664.97;;;11.34;58.65
3082;BME280;1551;51.046;7.010;2024-02-23T13:14:29;98666.47;;;11.38;58.75
3082;BME280;1551;51.046;7.010;2024-02-23T13:17:18;98670.81;;;11.54;58.28
3082;BME280;1551;51.046;7.010;2024-02-23T13:20:08;98680.75;;;11.98;57.95
3082;BME280;1551;51.046;7.010;2024-02-23T13:22:59;98669.63;;;11.80;56.69
3082;BME280;1551;51.046;7.010;2024-02-23T13:25:48;98669.91;;;12.44;55.79
3082;BME280;1551;51.046;7.010;2024-02-23T13:28:37;98666.88;;;12.70;53.24
3082;BME280;1551;51.046;7.010;2024-02-23T13:31:26;98665.75;;;12.24;53.70
3082;BME280;1551;51.046;7.010;2024-02-23T13:34:15;98659.56;;;12.11;54.49
3082;BME280;1551;51.046;7.010;2024-02-23T13:37:06;98664.19;;;12.39;54.30
3082;BME280;1551;51.046;7.010;2024-02-23T13:39:55;98670.13;;;14.88;52.26
3082;BME280;1551;51.046;7.010;2024-02-23T13:42:44;98672.34;;;16.93;44.83
3082;BME280;1551;51.046;7.010;2024-02-23T13:45:51;98667.44;;;15.32;45.24
3082;BME280;1551;51.046;7.010;2024-02-23T13:48:40;98658.13;;;14.44;47.02
3082;BME280;1551;51.046;7.010;2024-02-23T13:51:29;98669.66;;;13.78;47.68
3082;BME280;1551;51.046;7.010;2024-02-23T13:54:18;98664.16;;;13.06;48.94
3082;BME280;1551;51.046;7.010;2024-02-23T13:57:07;98657.66;;;12.66;50.03
3082;BME280;1551;51.046;7.010;2024-02-23T13:59:55;98665.66;;;12.77;50.42
3082;BME280;1551;51.046;7.010;2024-02-23T14:02:45;98654.03;;;12.70;49.35
3082;BME280;1551;51.046;7.010;2024-02-23T14:05:34;98677.69;;;13.72;49.60
3082;BME280;1551;51.046;7.010;2024-02-23T14:08:23;98666.22;;;13.93;46.32
3082;BME280;1551;51.046;7.010;2024-02-23T14:11:12;98672.81;;;13.03;47.57
3082;BME280;1551;51.046;7.010;2024-02-23T14:14:01;98660.63;;;12.91;48.26
3082;BME280;1551;51.046;7.010;2024-02-23T14:16:51;98668.47;;;12.56;49.02
3082;BME280;1551;51.046;7.010;2024-02-23T14:19:40;98675.34;;;12.21;49.95
3082;BME280;1551;51.046;7.010;2024-02-23T14:22:29;98673.00;;;11.99;50.68
3082;BME280;1551;51.046;7.010;2024-02-23T14:25:18;98655.13;;;11.98;51.36
3082;BME280;1551;51.046;7.010;2024-02-23T14:28:07;98659.16;;;13.03;49.78
3082;BME280;1551;51.046;7.010;2024-02-23T14:30:56;98668.75;;;12.67;50.55
3082;BME280;1551;51.046;7.010;2024-02-23T14:33:45;98653.16;;;12.20;51.96
3082;BME280;1551;51.046;7.010;2024-02-23T14:36:34;98660.78;;;12.04;52.74
3082;BME280;1551;51.046;7.010;2024-02-23T14:39:23;98661.28;;;11.58;52.47
3082;BME280;1551;51.046;7.010;2024-02-23T14:42:12;98660.28;;;11.42;52.41
3082;BME280;1551;51.046;7.010;2024-02-23T14:45:01;98667.53;;;11.34;52.94
3082;BME280;1551;51.046;7.010;2024-02-23T14:47:50;98662.28;;;11.37;53.04
3082;BME280;1551;51.046;7.010;2024-02-23T14:50:39;98666.22;;;11.25;53.14
3082;BME280;1551;51.046;7.010;2024-02-23T14:53:28;98651.75;;;11.24;53.91
3082;BME280;1551;51.046;7.010;2024-02-23T14:56:17;98661.63;;;11.32;53.99
3082;BME280;1551;51.046;7.010;2024-02-23T14:59:07;98660.25;;;11.43;54.43
3082;BME280;1551;51.046;7.010;2024-02-23T15:01:59;98662.59;;;11.29;55.32
3082;BME280;1551;51.046;7.010;2024-02-23T15:04:48;98668.06;;;11.22;55.17
3082;BME280;1551;51.046;7.010;2024-02-23T15:07:37;98661.22;;;11.22;55.76
3082;BME280;1551;51.046;7.010;2024-02-23T15:10:26;98662.09;;;11.02;55.81
3082;BME280;1551;51.046;7.010;2024-02-23T15:13:17;98678.84;;;10.91;55.86
3082;BME280;1551;51.046;7.010;2024-02-23T15:16:06;98668.31;;;10.78;55.36
3082;BME280;1551;51.046;7.010;2024-02-23T15:18:55;98689.75;;;10.76;55.56
3082;BME280;1551;51.046;7.010;2024-02-23T15:21:44;98665.03;;;10.75;56.18
3082;BME280;1551;51.046;7.010;2024-02-23T15:24:33;98667.16;;;10.85;56.50
3082;BME280;1551;51.046;7.010;2024-02-23T15:27:22;98662.31;;;11.54;55.70
3082;BME280;1551;51.046;7.010;2024-02-23T15:30:11;98665.03;;;11.87;54.85
3082;BME280;1551;51.046;7.010;2024-02-23T15:33:00;98668.41;;;11.51;54.53